Time;durP1;ratioP1;P1;durP2;ratioP2;P2;SDS_P1;SDS_P2;PMS_P1;PMS_P2;Temp;Humidity;BMP_temperature;BMP_pressure;BME280_temperature;BME280_humidity;BME280_pressure;Samples;Min_cycle;Max_cycle;Signal;HPM_P1;HPM_P2
2023/03/04 00:00:10;;;;;;;23.63;15.37;;;;;;;3.22;65.77;100441.34;5026355;27;100521;-81
2023/03/04 00:02:35;;;;;;;21.70;14.10;;;;;;;3.25;65.89;100441.31;5039599;27;96844;-82
2023/03/04 00:05:02;;;;;;;24.77;14.93;;;;;;;3.12;65.77;100411.97;5053737;27;97475;-81
2023/03/04 00:07:28;;;;;;;22.10;13.67;;;;;;;3.11;66.10;100405.03;5036750;27;101578;-82
2023/03/04 00:09:53;;;;;;;21.10;13.53;;;;;;;3.18;65.67;100425.78;5038874;27;101260;-81
2023/03/04 00:12:19;;;;;;;20.20;12.53;;;;;;;3.24;65.75;100429.25;5036944;27;96739;-82
2023/03/04 00:14:45;;;;;;;23.07;14.43;;;;;;;3.26;65.63;100430.06;5035033;27;97747;-81
2023/03/04 00:17:10;;;;;;;22.33;13.87;;;;;;;3.26;66.09;100412.81;5037983;27;99946;-81
2023/03/04 00:19:36;;;;;;;23.20;14.53;;;;;;;3.24;65.99;100411.06;5039203;27;101453;-79
2023/03/04 00:22:02;;;;;;;25.30;15.83;;;;;;;3.14;66.01;100399.84;5039583;27;97895;-79
2023/03/04 00:24:28;;;;;;;21.37;14.33;;;;;;;3.16;66.23;100409.34;5033843;27;97348;-81
2023/03/04 00:26:54;;;;;;;23.57;13.90;;;;;;;3.06;66.14;100386.91;5055111;27;101510;-81
2023/03/04 00:29:20;;;;;;;22.23;14.00;;;;;;;3.16;65.88;100404.16;5039307;27;101700;-81
2023/03/04 00:31:46;;;;;;;23.50;14.73;;;;;;;3.12;66.17;100392.06;5035616;27;97267;-79
2023/03/04 00:34:12;;;;;;;23.40;14.53;;;;;;;3.18;66.05;100389.47;5022395;27;97073;-79
2023/03/04 00:36:37;;;;;;;22.20;13.23;;;;;;;3.24;65.79;100377.34;5034564;27;98079;-80
2023/03/04 00:39:03;;;;;;;22.03;14.60;;;;;;;3.29;65.26;100368.69;5018706;27;101066;-79
2023/03/04 00:41:29;;;;;;;24.83;14.00;;;;;;;3.21;65.62;100349.69;5050587;27;97208;-79
2023/03/04 00:43:54;;;;;;;21.90;13.20;;;;;;;3.23;65.41;100360.03;5033636;27;97674;-78
2023/03/04 00:46:20;;;;;;;19.47;12.73;;;;;;;3.32;65.63;100357.44;5009681;27;100780;-81
2023/03/04 00:48:45;;;;;;;19.33;11.93;;;;;;;3.24;66.11;100354.84;5034193;27;101693;-81
2023/03/04 00:51:11;;;;;;;19.93;12.07;;;;;;;3.14;65.63;100350.56;5036967;27;97427;-81
2023/03/04 00:53:36;;;;;;;20.13;11.83;;;;;;;3.14;65.79;100348.84;5032529;27;98402;-81
2023/03/04 00:56:02;;;;;;;19.40;11.20;;;;;;;3.18;66.08;100352.28;5018905;27;101972;-81
2023/03/04 00:58:27;;;;;;;23.37;12.63;;;;;;;3.11;65.98;100338.47;5036710;27;99828;-81
2023/03/04 01:00:53;;;;;;;23.57;12.47;;;;;;;3.21;66.05;100338.44;5023942;27;96730;-81
2023/03/04 01:03:18;;;;;;;24.50;12.63;;;;;;;3.12;66.09;100321.19;5020425;27;97159;-79
2023/03/04 01:05:44;;;;;;;20.13;11.83;;;;;;;3.13;66.09;100326.34;5034178;27;100644;-79
2023/03/04 01:08:09;;;;;;;18.03;10.53;;;;;;;3.10;66.11;100328.09;5015002;27;100594;-79
2023/03/04 01:10:35;;;;;;;20.80;12.87;;;;;;;3.18;66.62;100334.13;5037293;27;97434;-81
2023/03/04 01:13:01;;;;;;;21.73;11.90;;;;;;;3.19;66.45;100338.44;5038093;27;97187;-81
2023/03/04 01:15:27;;;;;;;23.20;13.50;;;;;;;3.04;66.41;100322.94;5021991;27;101280;-81
2023/03/04 01:17:53;;;;;;;23.03;12.60;;;;;;;3.22;66.28;100335.81;5037865;27;101061;-81
2023/03/04 01:20:19;;;;;;;22.17;12.63;;;;;;;3.15;65.65;100314.25;5018302;27;96973;-81
2023/03/04 01:22:45;;;;;;;20.83;12.63;;;;;;;3.26;66.09;100332.38;5016392;27;96906;-81
2023/03/04 01:25:10;;;;;;;19.17;11.77;;;;;;;3.24;65.79;100312.50;5033607;27;101211;-81
2023/03/04 01:27:36;;;;;;;23.50;12.57;;;;;;;3.13;66.08;100313.38;5029153;27;100820;-81
2023/03/04 01:30:02;;;;;;;24.30;13.10;;;;;;;3.23;65.76;100316.81;5016248;27;98062;-79
2023/03/04 01:32:28;;;;;;;20.97;12.27;;;;;;;3.09;65.87;100284.88;5038207;27;97321;-79
2023/03/04 01:34:54;;;;;;;22.33;12.63;;;;;;;3.21;65.79;100302.13;5033189;27;101490;-79
2023/03/04 01:37:19;;;;;;;19.93;12.47;;;;;;;3.17;65.60;100289.16;5049967;27;98420;-81
2023/03/04 01:39:45;;;;;;;23.30;12.90;;;;;;;3.21;66.04;100283.97;5037794;27;97186;-81
2023/03/04 01:42:23;;;;;;;22.13;12.60;;;;;;;3.30;65.39;100296.88;5055932;27;97060;-81
2023/03/04 01:44:49;;;;;;;19.73;11.47;;;;;;;3.25;65.48;100289.13;5015266;27;101518;-81
2023/03/04 01:47:15;;;;;;;21.73;12.53;;;;;;;3.22;65.80;100281.34;5033772;27;99810;-81
2023/03/04 01:49:40;;;;;;;19.60;11.10;;;;;;;3.24;65.66;100284.81;5017271;27;97520;-80
2023/03/04 01:52:13;;;;;;;22.47;12.20;;;;;;;3.29;65.38;100284.78;5032405;27;97096;-80
2023/03/04 01:54:39;;;;;;;22.67;12.77;;;;;;;3.35;64.88;100288.22;5033599;27;98148;-81
2023/03/04 01:57:16;;;;;;;17.63;12.60;;;;;;;3.09;64.60;100243.38;5017959;27;101108;-81
2023/03/04 01:59:42;;;;;;;23.47;14.67;;;;;;;3.13;64.82;100248.53;5047675;27;96790;-81
2023/03/04 02:02:07;;;;;;;24.20;14.83;;;;;;;3.17;64.97;100263.22;5039995;27;96845;-81
2023/03/04 02:04:34;;;;;;;25.73;14.80;;;;;;;3.16;65.13;100242.47;5053141;27;101606;-80
2023/03/04 02:07:01;;;;;;;25.47;15.23;;;;;;;3.23;64.81;100256.25;5036452;27;101304;-81
2023/03/04 02:09:27;;;;;;;24.87;16.90;;;;;;;3.25;64.40;100246.75;5034646;27;97386;-81
2023/03/04 02:11:53;;;;;;;25.47;17.20;;;;;;;3.33;64.64;100260.53;5018669;27;96803;-81
2023/03/04 02:14:19;;;;;;;27.80;18.40;;;;;;;3.26;64.47;100246.75;5054702;27;98194;-81
2023/03/04 02:16:46;;;;;;;27.30;18.73;;;;;;;3.29;64.33;100259.72;5033833;27;101542;-80
2023/03/04 02:19:22;;;;;;;33.53;21.03;;;;;;;3.30;64.27;100268.34;5024173;27;98340;-80
2023/03/04 02:21:48;;;;;;;30.90;20.93;;;;;;;3.32;64.43;100267.47;5041347;27;97217;-80
2023/03/04 02:24:32;;;;;;;31.30;21.83;;;;;;;3.30;64.21;100264.00;5036439;27;101195;-80
2023/03/04 02:26:58;;;;;;;30.53;21.13;;;;;;;3.25;64.34;100250.19;5049597;27;97938;-80
2023/03/04 02:29:23;;;;;;;27.43;18.47;;;;;;;3.22;63.95;100237.25;5033860;27;96800;-81
2023/03/04 02:31:51;;;;;;;27.63;19.20;;;;;;;3.28;63.92;100255.38;5036974;27;96831;-80
2023/03/04 02:34:27;;;;;;;26.80;17.37;;;;;;;3.27;63.87;100251.06;5054409;27;98358;-80
2023/03/04 02:36:53;;;;;;;25.73;16.07;;;;;;;3.30;64.23;100252.78;5042165;27;98478;-80
2023/03/04 02:39:19;;;;;;;24.53;16.47;;;;;;;3.28;63.77;100257.97;5020141;27;96768;-80
2023/03/04 02:41:45;;;;;;;22.00;14.07;;;;;;;3.13;64.13;100232.09;5051971;27;96759;-80
2023/03/04 02:44:23;;;;;;;20.53;13.67;;;;;;;3.26;63.77;100253.66;5021156;27;101205;-81
2023/03/04 02:46:51;;;;;;;18.47;12.30;;;;;;;3.22;64.34;100241.56;5030574;27;100382;-80
2023/03/04 02:49:17;;;;;;;23.33;13.30;;;;;;;3.30;64.06;100240.66;5024888;27;97081;-81
2023/03/04 02:51:42;;;;;;;23.27;14.30;;;;;;;3.26;63.81;100241.56;5023941;27;97095;-80
2023/03/04 02:54:20;;;;;;;17.67;11.10;;;;;;;3.27;63.57;100235.50;5029234;27;101684;-81
2023/03/04 02:56:51;;;;;;;18.67;12.30;;;;;;;3.21;63.71;100227.75;5017446;27;101498;-81
2023/03/04 02:59:18;;;;;;;19.47;12.53;;;;;;;3.32;63.35;100238.94;5036936;27;96753;-81
2023/03/04 03:01:44;;;;;;;19.83;13.10;;;;;;;3.30;63.77;100234.63;5036122;27;96865;-81
2023/03/04 03:04:10;;;;;;;20.50;12.67;;;;;;;3.30;63.46;100229.44;5022729;27;100928;-81
2023/03/04 03:06:36;;;;;;;19.90;12.57;;;;;;;3.28;63.80;100223.38;5039782;27;101688;-81
2023/03/04 03:09:02;;;;;;;21.10;12.67;;;;;;;3.28;63.47;100221.63;5049244;27;96865;-81
2023/03/04 03:11:28;;;;;;;20.47;13.40;;;;;;;3.25;63.46;100221.66;5039155;27;96953;-81
2023/03/04 03:13:54;;;;;;;18.30;11.93;;;;;;;3.11;63.60;100206.19;5039086;27;100177;-81
2023/03/04 03:16:20;;;;;;;22.07;13.90;;;;;;;3.08;63.21;100193.22;5042026;27;101763;-81
2023/03/04 03:18:45;;;;;;;20.93;13.43;;;;;;;3.26;63.49;100218.22;5037063;27;96786;-81
2023/03/04 03:21:11;;;;;;;24.70;13.67;;;;;;;3.26;63.34;100215.63;5039519;27;97466;-81
2023/03/04 03:23:36;;;;;;;21.23;13.77;;;;;;;3.30;63.65;100219.06;5036309;27;101697;-81
2023/03/04 03:26:02;;;;;;;23.27;13.97;;;;;;;3.21;63.02;100201.81;5035277;27;101077;-81
2023/03/04 03:28:28;;;;;;;22.60;13.67;;;;;;;3.33;63.37;100217.28;5017156;27;97130;-81
2023/03/04 03:30:53;;;;;;;23.53;15.03;;;;;;;3.30;63.10;100208.66;5035175;27;97159;-81
2023/03/04 03:33:19;;;;;;;21.83;12.97;;;;;;;3.25;63.03;100221.66;5018692;27;101345;-80
2023/03/04 03:35:45;;;;;;;24.53;14.17;;;;;;;3.19;62.99;100195.75;5038836;27;97649;-80
2023/03/04 03:38:10;;;;;;;23.37;12.87;;;;;;;3.13;62.95;100190.59;5038897;27;98350;-80
2023/03/04 03:40:36;;;;;;;21.10;14.17;;;;;;;3.25;63.24;100208.69;5038889;27;97298;-80
2023/03/04 03:43:02;;;;;;;26.03;15.03;;;;;;;3.17;62.91;100208.75;5035861;27;101084;-80
2023/03/04 03:45:27;;;;;;;22.30;14.23;;;;;;;3.26;63.03;100212.13;5008052;27;101303;-81
2023/03/04 03:47:53;;;;;;;22.73;13.73;;;;;;;3.29;62.89;100205.22;5036315;27;97004;-80
2023/03/04 03:50:18;;;;;;;23.20;13.97;;;;;;;3.23;63.38;100207.84;5022400;27;97115;-80
2023/03/04 03:52:44;;;;;;;24.07;14.77;;;;;;;3.30;62.72;100211.25;5048675;27;97838;-80
2023/03/04 03:55:09;;;;;;;22.13;13.43;;;;;;;3.33;62.74;100212.09;5039438;27;101654;-80
2023/03/04 03:57:35;;;;;;;23.97;13.60;;;;;;;3.29;62.78;100204.38;5025008;27;96801;-80
2023/03/04 04:00:01;;;;;;;23.43;13.87;;;;;;;3.29;62.27;100197.44;5037529;27;97480;-80
2023/03/04 04:02:26;;;;;;;22.40;14.30;;;;;;;3.26;62.41;100175.81;5025774;27;101087;-81
2023/03/04 04:04:52;;;;;;;22.80;14.27;;;;;;;3.24;62.65;100186.22;5037399;27;97508;-80
2023/03/04 04:07:18;;;;;;;24.80;15.00;;;;;;;3.34;62.55;100198.25;5039559;27;97423;-81
2023/03/04 04:09:43;;;;;;;21.23;14.13;;;;;;;3.31;62.81;100198.25;5020973;27;96835;-80
2023/03/04 04:12:12;;;;;;;25.60;14.47;;;;;;;3.25;62.81;100181.88;5020450;27;101379;-80
2023/03/04 04:14:37;;;;;;;18.47;12.80;;;;;;;3.28;62.76;100187.06;5022241;27;101187;-80
2023/03/04 04:17:03;;;;;;;20.77;13.83;;;;;;;3.30;62.86;100186.19;5056799;27;96897;-80
2023/03/04 04:19:28;;;;;;;19.00;12.87;;;;;;;3.31;62.66;100182.69;5018897;27;97070;-80
2023/03/04 04:21:54;;;;;;;22.03;13.37;;;;;;;3.29;62.42;100183.59;5034486;27;101415;-81
2023/03/04 04:24:19;;;;;;;21.50;14.00;;;;;;;3.30;62.72;100182.72;5034933;27;97465;-80
2023/03/04 04:26:45;;;;;;;21.17;13.50;;;;;;;3.32;62.79;100181.00;5016900;27;96770;-80
2023/03/04 04:29:13;;;;;;;23.70;14.27;;;;;;;3.34;62.90;100181.81;5020322;27;97171;-80
2023/03/04 04:31:38;;;;;;;18.97;13.37;;;;;;;3.36;62.83;100187.88;5022528;27;101641;-80
2023/03/04 04:34:04;;;;;;;17.63;12.70;;;;;;;3.39;62.39;100183.50;5036143;27;101675;-80
2023/03/04 04:36:30;;;;;;;19.43;13.13;;;;;;;3.38;62.38;100186.13;5028819;27;100644;-80
2023/03/04 04:38:56;;;;;;;18.60;12.90;;;;;;;3.24;62.60;100162.00;5029541;27;97287;-81
2023/03/04 04:41:24;;;;;;;25.37;14.27;;;;;;;3.31;62.19;100182.69;5034558;27;101339;-80
2023/03/04 04:43:50;;;;;;;20.27;13.73;;;;;;;3.33;62.35;100180.97;5030396;27;97640;-81
2023/03/04 04:46:16;;;;;;;20.07;13.83;;;;;;;3.22;62.40;100159.41;5033555;27;96717;-81
2023/03/04 04:48:42;;;;;;;20.83;13.43;;;;;;;3.29;62.53;100161.13;5034592;27;97128;-81
2023/03/04 04:51:07;;;;;;;20.63;14.17;;;;;;;3.31;62.17;100158.50;5019578;27;101305;-81
2023/03/04 04:53:33;;;;;;;22.60;14.93;;;;;;;3.35;62.24;100158.47;5031701;27;98404;-80
2023/03/04 04:55:59;;;;;;;22.00;14.63;;;;;;;3.39;62.46;100151.53;5034856;27;97172;-80
2023/03/04 04:58:24;;;;;;;19.83;13.20;;;;;;;3.34;62.63;100148.09;5033505;27;97472;-80
2023/03/04 05:00:50;;;;;;;22.83;13.67;;;;;;;3.32;62.44;100131.69;5023122;27;101775;-81
2023/03/04 05:03:16;;;;;;;19.77;12.63;;;;;;;3.11;62.68;100092.06;5031899;27;101124;-81
2023/03/04 05:05:41;;;;;;;18.30;11.93;;;;;;;3.33;62.58;100126.47;5037503;27;97278;-80
2023/03/04 05:08:07;;;;;;;20.30;12.43;;;;;;;3.39;62.74;100131.63;5030601;27;97176;-81
2023/03/04 05:10:32;;;;;;;18.60;12.40;;;;;;;3.34;62.28;100125.59;5032399;27;101439;-80
2023/03/04 05:12:58;;;;;;;18.83;12.10;;;;;;;3.30;62.24;100112.66;5042790;27;97293;-81
2023/03/04 05:15:23;;;;;;;20.80;11.87;;;;;;;3.32;62.46;100116.97;5033602;27;97285;-81
2023/03/04 05:17:49;;;;;;;19.03;12.23;;;;;;;3.28;62.10;100096.25;5037108;27;97061;-81
2023/03/04 05:20:15;;;;;;;17.10;11.73;;;;;;;3.24;62.32;100094.56;5019392;27;101748;-80
2023/03/04 05:22:41;;;;;;;19.77;13.20;;;;;;;3.26;62.26;100105.75;5033876;27;101094;-80
2023/03/04 05:25:06;;;;;;;20.10;11.87;;;;;;;3.18;62.30;100109.28;5052710;27;97312;-80
2023/03/04 05:27:32;;;;;;;18.37;12.43;;;;;;;3.35;61.80;100135.13;5042793;27;97165;-80
2023/03/04 05:30:00;;;;;;;21.83;11.60;;;;;;;3.32;62.03;100122.16;5033012;27;100781;-80
2023/03/04 05:32:27;;;;;;;19.67;11.63;;;;;;;3.20;62.31;100093.72;5036588;27;98957;-81
2023/03/04 05:34:52;;;;;;;17.60;11.60;;;;;;;3.40;62.38;100130.75;5037391;27;97203;-80
2023/03/04 05:37:18;;;;;;;21.73;12.77;;;;;;;3.43;62.23;100129.00;5055737;27;97044;-80
2023/03/04 05:39:43;;;;;;;18.33;11.73;;;;;;;3.42;62.01;100132.47;5034748;27;101357;-80
2023/03/04 05:42:09;;;;;;;18.10;11.77;;;;;;;3.40;62.36;100133.34;5037090;27;101428;-80
2023/03/04 05:44:34;;;;;;;19.07;12.20;;;;;;;3.40;62.05;100133.34;5018202;27;96771;-80
2023/03/04 05:47:00;;;;;;;19.00;12.17;;;;;;;3.36;62.53;100129.03;5053291;27;97336;-80
2023/03/04 05:49:26;;;;;;;18.60;11.50;;;;;;;3.42;62.32;100125.53;5013527;27;101644;-80
2023/03/04 05:51:51;;;;;;;19.00;12.07;;;;;;;3.38;62.42;100129.06;5017943;27;101679;-80
2023/03/04 05:54:17;;;;;;;18.83;11.47;;;;;;;3.39;62.42;100116.03;5034133;27;97298;-81
2023/03/04 05:56:42;;;;;;;17.97;11.03;;;;;;;3.44;62.47;100123.81;5050286;27;97608;-81
2023/03/04 05:59:08;;;;;;;16.93;11.40;;;;;;;3.42;62.59;100117.75;5036914;27;101720;-81
2023/03/04 06:01:33;;;;;;;17.93;12.17;;;;;;;3.48;62.33;100130.69;5035532;27;101750;-80
2023/03/04 06:03:59;;;;;;;19.07;11.93;;;;;;;3.38;62.08;100103.97;5024304;27;97370;-81
2023/03/04 06:06:24;;;;;;;20.43;12.90;;;;;;;3.33;62.35;100095.34;5025167;27;97759;-80
2023/03/04 06:08:50;;;;;;;19.83;14.17;;;;;;;3.49;61.85;100126.34;5034377;27;101718;-80
2023/03/04 06:11:16;;;;;;;23.20;12.87;;;;;;;3.51;61.71;100137.59;5020711;27;101696;-81
2023/03/04 06:13:41;;;;;;;20.67;13.30;;;;;;;3.47;62.04;100128.97;5017118;27;97218;-80
2023/03/04 06:16:07;;;;;;;28.97;15.03;;;;;;;3.53;62.28;100139.31;5027914;27;97345;-80
2023/03/04 06:18:32;;;;;;;22.23;14.23;;;;;;;3.53;62.07;100139.31;5034540;27;101279;-81
2023/03/04 06:21:02;;;;;;;23.60;14.90;;;;;;;3.57;61.75;100140.97;5037358;27;97896;-81
2023/03/04 06:23:27;;;;;;;24.23;15.33;;;;;;;3.56;61.77;100134.09;5043253;27;98033;-81
2023/03/04 06:25:56;;;;;;;27.60;15.40;;;;;;;3.60;61.71;100135.75;4996702;27;96929;-80
2023/03/04 06:28:22;;;;;;;23.50;15.27;;;;;;;3.51;61.82;100119.41;5009308;27;98120;-80
2023/03/04 06:30:51;;;;;;;21.60;14.97;;;;;;;3.49;62.04;100111.66;5004349;27;101427;-80
2023/03/04 06:33:16;;;;;;;23.90;15.70;;;;;;;3.54;61.74;100125.44;5010188;27;96855;-81
2023/03/04 06:35:42;;;;;;;21.13;14.70;;;;;;;3.68;62.04;100147.84;5020613;27;97384;-81
2023/03/04 06:38:07;;;;;;;28.07;16.03;;;;;;;3.64;61.88;100139.22;5001462;27;101366;-81
2023/03/04 06:40:33;;;;;;;24.27;16.03;;;;;;;3.72;61.82;100152.97;5007458;27;101517;-81
2023/03/04 06:42:59;;;;;;;24.33;16.40;;;;;;;3.68;62.14;100150.44;5007894;27;97332;-79
2023/03/04 06:45:24;;;;;;;22.80;15.30;;;;;;;3.59;62.30;100138.38;5013916;27;97200;-80
2023/03/04 06:47:50;;;;;;;22.57;15.50;;;;;;;3.66;62.37;100150.44;4988294;27;101183;-81
2023/03/04 06:50:16;;;;;;;25.63;15.30;;;;;;;3.63;61.84;100142.66;5000325;27;101018;-81
2023/03/04 06:52:41;;;;;;;23.23;15.27;;;;;;;3.63;62.12;100155.66;4991858;27;97156;-81
2023/03/04 06:55:07;;;;;;;22.70;15.40;;;;;;;3.61;61.78;100147.88;5002837;27;97075;-81
2023/03/04 06:57:33;;;;;;;22.23;14.90;;;;;;;3.56;61.91;100133.22;4992872;27;101418;-80
2023/03/04 06:59:59;;;;;;;22.57;14.13;;;;;;;3.54;61.93;100137.56;5012320;27;100870;-80
2023/03/04 07:02:24;;;;;;;20.27;13.37;;;;;;;3.63;61.85;100153.06;5015214;27;97311;-80
2023/03/04 07:04:50;;;;;;;24.90;14.50;;;;;;;3.72;62.03;100160.75;5022598;27;97516;-81
2023/03/04 07:07:16;;;;;;;20.87;13.50;;;;;;;3.71;61.86;100158.19;5012518;27;101062;-81
2023/03/04 07:09:41;;;;;;;21.17;13.30;;;;;;;3.77;61.90;100171.97;4991936;27;101704;-82
2023/03/04 07:12:07;;;;;;;20.63;13.63;;;;;;;3.75;61.84;100163.34;5002972;27;98712;-81
2023/03/04 07:14:32;;;;;;;20.30;12.23;;;;;;;3.79;61.92;100167.63;5006990;27;96887;-81
2023/03/04 07:16:58;;;;;;;22.53;13.13;;;;;;;3.78;61.84;100157.25;5000551;27;99914;-81
2023/03/04 07:19:23;;;;;;;18.93;11.73;;;;;;;3.77;61.72;100150.34;5001779;27;97127;-81
2023/03/04 07:21:49;;;;;;;18.27;12.00;;;;;;;3.79;61.84;100172.81;5017223;27;96803;-80
2023/03/04 07:24:15;;;;;;;21.07;11.90;;;;;;;3.84;61.84;100173.66;5011160;27;97118;-81
2023/03/04 07:26:41;;;;;;;19.67;12.17;;;;;;;3.87;61.96;100177.97;5005670;27;101530;-80
2023/03/04 07:29:06;;;;;;;20.37;12.73;;;;;;;3.82;61.94;100159.81;4991292;27;101030;-82
2023/03/04 07:31:34;;;;;;;19.13;12.97;;;;;;;3.92;62.09;100181.34;5034872;27;97120;-82
2023/03/04 07:34:02;;;;;;;20.80;12.43;;;;;;;3.87;62.32;100180.56;5022466;27;96857;-81
2023/03/04 07:36:28;;;;;;;18.53;12.07;;;;;;;3.84;62.49;100170.22;5014510;27;100871;-80
2023/03/04 07:38:54;;;;;;;20.50;12.13;;;;;;;3.72;62.62;100140.00;5013403;27;98047;-81
2023/03/04 07:41:20;;;;;;;17.13;11.60;;;;;;;3.89;62.72;100170.16;4996663;27;97045;-81
2023/03/04 07:43:46;;;;;;;20.90;12.57;;;;;;;3.91;62.96;100171.84;5003803;27;97064;-81
2023/03/04 07:46:12;;;;;;;20.67;12.00;;;;;;;3.91;63.04;100165.81;4992563;27;101729;-81
2023/03/04 07:48:38;;;;;;;15.47;11.00;;;;;;;3.94;62.82;100174.44;5011058;27;101473;-81
2023/03/04 07:51:12;;;;;;;20.00;12.00;;;;;;;3.96;63.16;100164.03;5015071;27;97194;-81
2023/03/04 07:53:39;;;;;;;18.43;11.93;;;;;;;3.96;63.29;100164.03;5005320;27;98504;-81
2023/03/04 07:56:05;;;;;;;22.47;11.23;;;;;;;3.89;62.99;100139.84;4987002;27;101226;-81
2023/03/04 07:58:31;;;;;;;18.53;11.43;;;;;;;3.97;63.49;100151.00;5019057;27;97391;-80
2023/03/04 08:00:57;;;;;;;17.80;12.13;;;;;;;4.02;63.52;100162.22;5018645;27;96822;-80
2023/03/04 08:03:23;;;;;;;23.37;13.33;;;;;;;4.00;63.90;100158.78;5014424;27;97011;-81
2023/03/04 08:05:49;;;;;;;20.60;14.03;;;;;;;3.92;63.89;100145.00;5001092;27;102802;-81
2023/03/04 08:08:14;;;;;;;23.27;14.20;;;;;;;3.97;63.98;100150.16;5020447;27;101043;-81
2023/03/04 08:10:40;;;;;;;22.07;14.40;;;;;;;4.00;64.29;100148.38;4990592;27;97338;-82
2023/03/04 08:13:07;;;;;;;21.40;14.20;;;;;;;3.97;64.15;100142.38;5013149;27;97794;-80
2023/03/04 08:15:34;;;;;;;20.33;14.27;;;;;;;4.00;64.43;100139.75;5015274;27;100994;-81
2023/03/04 08:18:00;;;;;;;25.40;15.90;;;;;;;4.03;64.71;100148.34;4988977;27;101506;-81
2023/03/04 08:20:26;;;;;;;19.33;14.03;;;;;;;4.06;64.71;100153.53;4996077;27;97350;-80
2023/03/04 08:22:52;;;;;;;23.90;14.60;;;;;;;4.03;64.51;100150.09;4993482;27;97183;-82
2023/03/04 08:25:17;;;;;;;22.33;13.50;;;;;;;4.03;64.65;100137.13;4985715;27;101496;-81
2023/03/04 08:27:43;;;;;;;22.53;13.60;;;;;;;4.05;64.89;100141.41;4993745;27;99845;-80
2023/03/04 08:30:09;;;;;;;20.23;13.10;;;;;;;4.06;65.15;100139.69;4991517;28;97542;-85
2023/03/04 08:32:35;;;;;;;20.80;12.90;;;;;;;3.93;64.94;100112.97;5006773;27;96848;-84
2023/03/04 08:35:01;;;;;;;27.07;13.50;;;;;;;4.08;65.24;100143.97;5007628;27;101541;-85
2023/03/04 08:37:28;;;;;;;19.73;12.10;;;;;;;4.13;64.84;100143.94;5034693;27;97790;-81
2023/03/04 08:39:54;;;;;;;19.97;11.47;;;;;;;4.13;65.21;100141.34;5004658;27;97591;-80
2023/03/04 08:42:19;;;;;;;19.37;11.20;;;;;;;4.17;65.32;100140.44;5004496;27;96845;-84
2023/03/04 08:44:45;;;;;;;16.73;11.60;;;;;;;4.25;65.10;100137.75;5004641;27;99607;-85
2023/03/04 08:47:11;;;;;;;20.27;10.50;;;;;;;4.29;65.02;100136.84;4999389;27;101563;-86
2023/03/04 08:49:36;;;;;;;20.17;9.77;;;;;;;4.28;65.40;100130.78;5008506;27;97225;-86
2023/03/04 08:52:02;;;;;;;20.03;10.00;;;;;;;4.34;65.18;100129.00;4991105;27;96841;-86
2023/03/04 08:54:27;;;;;;;15.50;8.80;;;;;;;4.31;65.00;100120.34;5008714;27;101072;-85
2023/03/04 08:56:53;;;;;;;17.33;8.40;;;;;;;4.35;64.53;100138.50;5012572;27;99017;-80
2023/03/04 08:59:18;;;;;;;15.07;8.93;;;;;;;4.37;64.53;100128.97;5016390;27;97033;-86
2023/03/04 09:01:44;;;;;;;17.77;9.23;;;;;;;4.44;64.90;100130.59;5020759;27;96919;-84
2023/03/04 09:04:10;;;;;;;14.00;7.77;;;;;;;4.45;64.77;100128.00;5003061;27;97873;-86
2023/03/04 09:06:35;;;;;;;13.50;7.70;;;;;;;4.44;64.82;100120.19;4983275;27;100829;-85
2023/03/04 09:09:02;;;;;;;15.40;7.77;;;;;;;4.44;64.42;100121.06;5012641;27;97653;-84
2023/03/04 09:11:27;;;;;;;13.43;8.20;;;;;;;4.48;64.75;100121.88;5007006;27;97256;-84
2023/03/04 09:13:53;;;;;;;13.80;6.87;;;;;;;4.46;64.85;100116.69;5015821;27;98209;-85
2023/03/04 09:16:18;;;;;;;16.20;7.80;;;;;;;4.49;64.71;100118.41;5003718;27;101530;-83
2023/03/04 09:18:44;;;;;;;13.50;7.97;;;;;;;4.52;64.86;100118.38;4987642;27;97388;-83
2023/03/04 09:21:10;;;;;;;19.00;9.63;;;;;;;4.59;64.60;100127.78;5002113;27;99094;-81
2023/03/04 09:23:36;;;;;;;15.23;9.47;;;;;;;4.61;64.41;100127.78;5014767;27;101571;-82
2023/03/04 09:26:22;;;;;;;18.73;8.77;;;;;;;4.64;64.91;100127.75;5047100;27;98027;-85
2023/03/04 09:28:52;;;;;;;15.47;7.93;;;;;;;4.65;64.96;100129.47;5021041;27;96942;-83
2023/03/04 09:31:18;;;;;;;13.63;7.43;;;;;;;4.57;64.79;100105.28;5053707;27;96956;-86
2023/03/04 09:33:43;;;;;;;17.20;8.83;;;;;;;4.72;65.09;100123.31;5038030;27;97769;-84
2023/03/04 09:36:10;;;;;;;13.77;8.10;;;;;;;4.71;64.73;100124.19;5036084;27;97916;-84
2023/03/04 09:38:37;;;;;;;16.43;8.30;;;;;;;4.71;64.96;100126.78;5026190;27;97085;-84
2023/03/04 09:41:06;;;;;;;12.63;8.07;;;;;;;4.63;64.94;100105.25;5030059;27;98124;-88
2023/03/04 09:43:32;;;;;;;14.90;7.30;;;;;;;4.78;65.23;100114.56;5000453;27;100642;-87
2023/03/04 09:46:01;;;;;;;16.43;7.27;;;;;;;4.78;65.31;100122.38;5030872;27;97974;-86
2023/03/04 09:48:29;;;;;;;13.63;7.03;;;;;;;4.66;65.57;100097.41;5004252;27;97085;-85
2023/03/04 09:51:36;;;;;;;15.33;7.67;;;;;;;4.71;65.55;100119.88;5015171;27;97325;-80
2023/03/04 09:54:08;;;;;;;12.43;7.27;;;;;;;4.69;65.38;100103.41;5019572;27;101709;-83
2023/03/04 09:56:38;;;;;;;12.07;6.97;;;;;;;4.76;66.07;100111.97;5009907;27;99982;-85
2023/03/04 09:59:21;;;;;;;14.07;6.83;;;;;;;4.79;66.23;100111.09;5028425;27;97246;-85
2023/03/04 10:01:54;;;;;;;16.67;7.53;;;;;;;4.78;66.05;100110.22;5034883;27;97301;-82
2023/03/04 10:04:23;;;;;;;11.23;6.80;;;;;;;4.78;66.42;100105.03;5030775;27;98535;-91
2023/03/04 10:06:53;;;;;;;12.00;6.57;;;;;;;4.78;67.09;100097.22;5023999;27;100994;-93
2023/03/04 10:09:45;;;;;;;10.97;6.70;;;;;;;4.80;67.01;100100.66;5027991;27;97395;-91
2023/03/04 10:12:16;;;;;;;13.82;6.38;;;;;;;4.63;67.29;100064.50;5042485;27;97356;-85
2023/03/04 10:15:14;;;;;;;9.95;6.20;;;;;;;4.76;67.33;100066.03;5015082;27;100663;-89
2023/03/04 10:17:42;;;;;;;17.00;6.97;;;;;;;4.87;67.88;100088.44;4994689;27;101700;-93
2023/03/04 10:20:28;;;;;;;14.33;6.63;;;;;;;4.90;67.69;100086.63;5019081;27;96885;-93
2023/03/04 10:23:01;;;;;;;13.20;6.83;;;;;;;4.95;67.89;100087.44;5058584;27;97075;-89
2023/03/04 10:25:29;;;;;;;14.17;7.03;;;;;;;5.00;67.78;100084.75;5036275;27;100262;-85
2023/03/04 10:28:11;;;;;;;14.13;8.23;;;;;;;5.11;68.34;100082.00;5041350;27;99747;-86
2023/03/04 10:30:47;;;;;;;13.85;7.22;;;;;;;5.12;67.67;100070.69;5024763;27;96758;-88
2023/03/04 10:33:16;;;;;;;12.20;6.63;;;;;;;4.94;68.30;100048.44;5034448;27;97126;-92
2023/03/04 10:35:50;;;;;;;13.77;6.97;;;;;;;5.22;68.11;100074.88;5011446;27;98008;-90
2023/03/04 10:38:18;;;;;;;14.53;7.33;;;;;;;5.24;67.97;100078.34;4999940;27;100345;-90
2023/03/04 10:40:44;;;;;;;11.57;7.17;;;;;;;5.19;68.24;100073.19;5002011;27;96816;-89
2023/03/04 10:43:20;;;;;;;11.53;7.37;;;;;;;5.24;68.00;100073.13;5010269;27;96839;-90
2023/03/04 10:45:47;;;;;;;12.30;6.93;;;;;;;5.26;68.22;100062.69;4996738;27;101792;-92
2023/03/04 10:48:25;;;;;;;12.90;6.97;;;;;;;5.17;68.29;100043.72;5015368;27;98317;-91
2023/03/04 10:50:51;;;;;;;12.30;7.43;;;;;;;5.30;68.42;100038.34;5013377;28;97680;-90
2023/03/04 10:53:32;;;;;;;10.93;6.80;;;;;;;5.38;67.78;100052.06;5009715;28;97517;-90
2023/03/04 10:55:58;;;;;;;12.53;7.07;;;;;;;5.41;67.67;100037.25;4982128;28;100709;-80
2023/03/04 10:58:24;;;;;;;13.00;6.40;;;;;;;5.41;67.44;100058.09;4984254;27;101234;-84
2023/03/04 11:01:02;;;;;;;12.53;6.57;;;;;;;5.43;67.59;100052.84;5012989;27;96804;-84
2023/03/04 11:03:27;;;;;;;11.00;6.63;;;;;;;5.44;67.31;100045.00;5020342;27;96792;-88
2023/03/04 11:06:21;;;;;;;10.60;6.57;;;;;;;5.55;67.42;100041.34;5027615;27;98890;-86
2023/03/04 11:08:55;;;;;;;16.50;6.67;;;;;;;5.44;66.90;100018.97;5036783;27;97355;-88
2023/03/04 11:11:37;;;;;;;11.37;6.87;;;;;;;5.59;67.17;100036.06;5018406;27;98733;-87
2023/03/04 11:14:21;;;;;;;10.32;6.38;;;;;;;5.69;66.57;100028.94;5007868;27;97958;-88
2023/03/04 11:17:18;;;;;;;12.63;7.17;;;;;;;5.79;65.78;100047.84;5006660;27;101114;-87